sensor_id;sensor_type;location;lat;lon;timestamp;P1;durP1;ratioP1;P2;durP2;ratioP2
38083;SDS011;23894;51.466;7.444;2023-10-19T00:00:42;6.80;;;4.25;;
38083;SDS011;23894;51.466;7.444;2023-10-19T00:02:46;7.32;;;4.38;;
38083;SDS011;23894;51.466;7.444;2023-10-19T00:04:47;8.90;;;4.47;;
38083;SDS011;23894;51.466;7.444;2023-10-19T00:06:49;6.10;;;3.85;;
38083;SDS011;23894;51.466;7.444;2023-10-19T00:08:50;7.85;;;4.22;;
38083;SDS011;23894;51.466;7.444;2023-10-19T00:10:53;6.40;;;3.88;;
38083;SDS011;23894;51.466;7.444;2023-10-19T00:13:14;7.00;;;4.13;;
38083;SDS011;23894;51.466;7.444;2023-10-19T00:15:15;6.00;;;3.53;;
38083;SDS011;23894;51.466;7.444;2023-10-19T00:17:22;6.78;;;4.45;;
38083;SDS011;23894;51.466;7.444;2023-10-19T00:19:27;6.53;;;3.95;;
38083;SDS011;23894;51.466;7.444;2023-10-19T00:23:29;7.20;;;4.15;;
38083;SDS011;23894;51.466;7.444;2023-10-19T00:25:34;6.47;;;4.10;;
38083;SDS011;23894;51.466;7.444;2023-10-19T00:27:35;6.40;;;4.22;;
38083;SDS011;23894;51.466;7.444;2023-10-19T00:29:36;7.97;;;4.25;;
38083;SDS011;23894;51.466;7.444;2023-10-19T00:31:40;7.30;;;4.30;;
38083;SDS011;23894;51.466;7.444;2023-10-19T00:33:41;7.82;;;4.60;;
38083;SDS011;23894;51.466;7.444;2023-10-19T00:35:42;7.90;;;4.60;;
38083;SDS011;23894;51.466;7.444;2023-10-19T00:37:46;8.02;;;4.43;;
38083;SDS011;23894;51.466;7.444;2023-10-19T00:39:48;6.93;;;4.03;;
38083;SDS011;23894;51.466;7.444;2023-10-19T00:41:54;7.93;;;4.55;;
38083;SDS011;23894;51.466;7.444;2023-10-19T00:43:58;6.38;;;3.95;;
38083;SDS011;23894;51.466;7.444;2023-10-19T00:46:11;8.23;;;4.75;;
38083;SDS011;23894;51.466;7.444;2023-10-19T00:48:18;7.45;;;4.60;;
38083;SDS011;23894;51.466;7.444;2023-10-19T00:50:23;6.50;;;4.57;;
38083;SDS011;23894;51.466;7.444;2023-10-19T00:52:27;7.32;;;4.90;;
38083;SDS011;23894;51.466;7.444;2023-10-19T00:54:32;6.55;;;4.32;;
38083;SDS011;23894;51.466;7.444;2023-10-19T00:56:38;7.68;;;4.82;;
38083;SDS011;23894;51.466;7.444;2023-10-19T00:58:44;7.40;;;4.40;;
38083;SDS011;23894;51.466;7.444;2023-10-19T01:00:53;6.97;;;4.38;;
38083;SDS011;23894;51.466;7.444;2023-10-19T01:02:55;6.38;;;4.00;;
38083;SDS011;23894;51.466;7.444;2023-10-19T01:05:00;6.13;;;4.30;;
38083;SDS011;23894;51.466;7.444;2023-10-19T01:07:04;7.50;;;4.68;;
38083;SDS011;23894;51.466;7.444;2023-10-19T01:09:12;7.35;;;4.00;;
38083;SDS011;23894;51.466;7.444;2023-10-19T01:11:14;6.47;;;3.92;;
38083;SDS011;23894;51.466;7.444;2023-10-19T01:13:15;6.53;;;4.15;;
38083;SDS011;23894;51.466;7.444;2023-10-19T01:15:17;6.45;;;3.80;;
38083;SDS011;23894;51.466;7.444;2023-10-19T01:17:27;6.57;;;3.70;;
38083;SDS011;23894;51.466;7.444;2023-10-19T01:19:31;6.63;;;4.10;;
38083;SDS011;23894;51.466;7.444;2023-10-19T01:21:31;6.55;;;4.40;;
38083;SDS011;23894;51.466;7.444;2023-10-19T01:23:40;6.43;;;3.95;;
38083;SDS011;23894;51.466;7.444;2023-10-19T01:27:44;6.35;;;4.20;;
38083;SDS011;23894;51.466;7.444;2023-10-19T01:29:45;9.05;;;4.20;;
38083;SDS011;23894;51.466;7.444;2023-10-19T01:31:45;6.50;;;4.10;;
38083;SDS011;23894;51.466;7.444;2023-10-19T01:34:06;9.57;;;4.10;;
38083;SDS011;23894;51.466;7.444;2023-10-19T01:36:09;7.47;;;4.72;;
38083;SDS011;23894;51.466;7.444;2023-10-19T01:38:11;7.32;;;4.55;;
38083;SDS011;23894;51.466;7.444;2023-10-19T01:40:12;7.85;;;5.32;;
38083;SDS011;23894;51.466;7.444;2023-10-19T01:42:20;7.47;;;4.95;;
38083;SDS011;23894;51.466;7.444;2023-10-19T01:44:20;7.78;;;4.70;;
38083;SDS011;23894;51.466;7.444;2023-10-19T01:46:22;7.55;;;4.90;;
38083;SDS011;23894;51.466;7.444;2023-10-19T01:48:35;8.40;;;5.22;;
38083;SDS011;23894;51.466;7.444;2023-10-19T01:50:36;7.95;;;5.28;;
38083;SDS011;23894;51.466;7.444;2023-10-19T01:52:39;7.70;;;4.97;;
38083;SDS011;23894;51.466;7.444;2023-10-19T01:54:39;8.77;;;5.72;;
38083;SDS011;23894;51.466;7.444;2023-10-19T01:56:40;7.82;;;5.40;;
38083;SDS011;23894;51.466;7.444;2023-10-19T01:58:43;9.52;;;5.70;;
38083;SDS011;23894;51.466;7.444;2023-10-19T02:00:47;9.18;;;5.47;;
38083;SDS011;23894;51.466;7.444;2023-10-19T02:02:48;7.75;;;5.80;;
38083;SDS011;23894;51.466;7.444;2023-10-19T02:04:50;7.40;;;5.65;;
38083;SDS011;23894;51.466;7.444;2023-10-19T02:06:53;9.40;;;6.25;;
38083;SDS011;23894;51.466;7.444;2023-10-19T02:09:02;9.73;;;5.53;;
38083;SDS011;23894;51.466;7.444;2023-10-19T02:11:19;9.88;;;5.63;;
38083;SDS011;23894;51.466;7.444;2023-10-19T02:13:21;8.98;;;5.68;;
38083;SDS011;23894;51.466;7.444;2023-10-19T02:15:23;8.20;;;6.15;;
38083;SDS011;23894;51.466;7.444;2023-10-19T02:17:24;11.93;;;6.15;;
38083;SDS011;23894;51.466;7.444;2023-10-19T02:21:28;8.63;;;5.93;;
38083;SDS011;23894;51.466;7.444;2023-10-19T02:23:30;7.82;;;5.75;;
38083;SDS011;23894;51.466;7.444;2023-10-19T02:25:32;8.27;;;5.57;;
38083;SDS011;23894;51.466;7.444;2023-10-19T02:27:36;8.68;;;6.07;;
38083;SDS011;23894;51.466;7.444;2023-10-19T02:29:37;10.23;;;6.20;;
38083;SDS011;23894;51.466;7.444;2023-10-19T02:31:42;8.45;;;6.07;;
38083;SDS011;23894;51.466;7.444;2023-10-19T02:33:43;7.95;;;5.80;;
38083;SDS011;23894;51.466;7.444;2023-10-19T02:35:46;8.75;;;5.38;;
38083;SDS011;23894;51.466;7.444;2023-10-19T02:37:48;10.23;;;5.75;;
38083;SDS011;23894;51.466;7.444;2023-10-19T02:39:48;9.05;;;5.20;;
38083;SDS011;23894;51.466;7.444;2023-10-19T02:41:49;8.20;;;4.82;;
38083;SDS011;23894;51.466;7.444;2023-10-19T02:43:49;8.00;;;5.38;;
38083;SDS011;23894;51.466;7.444;2023-10-19T02:46:09;8.55;;;4.90;;
38083;SDS011;23894;51.466;7.444;2023-10-19T02:48:10;7.70;;;5.13;;
38083;SDS011;23894;51.466;7.444;2023-10-19T02:50:12;8.48;;;4.45;;
38083;SDS011;23894;51.466;7.444;2023-10-19T02:52:16;7.25;;;4.50;;
38083;SDS011;23894;51.466;7.444;2023-10-19T02:54:18;8.30;;;5.20;;
38083;SDS011;23894;51.466;7.444;2023-10-19T02:56:20;7.38;;;4.20;;
38083;SDS011;23894;51.466;7.444;2023-10-19T02:58:23;6.75;;;4.25;;
38083;SDS011;23894;51.466;7.444;2023-10-19T03:00:24;10.05;;;4.88;;
38083;SDS011;23894;51.466;7.444;2023-10-19T03:02:32;6.53;;;3.97;;
38083;SDS011;23894;51.466;7.444;2023-10-19T03:04:33;8.20;;;4.43;;
38083;SDS011;23894;51.466;7.444;2023-10-19T03:06:37;5.25;;;3.30;;
38083;SDS011;23894;51.466;7.444;2023-10-19T03:08:40;7.72;;;4.28;;
38083;SDS011;23894;51.466;7.444;2023-10-19T03:10:41;6.88;;;3.40;;
38083;SDS011;23894;51.466;7.444;2023-10-19T03:12:42;6.63;;;3.70;;
38083;SDS011;23894;51.466;7.444;2023-10-19T03:16:48;8.77;;;4.20;;
38083;SDS011;23894;51.466;7.444;2023-10-19T03:18:49;6.80;;;3.50;;
38083;SDS011;23894;51.466;7.444;2023-10-19T03:20:51;5.45;;;3.28;;
38083;SDS011;23894;51.466;7.444;2023-10-19T03:22:51;5.70;;;3.42;;
38083;SDS011;23894;51.466;7.444;2023-10-19T03:24:52;7.43;;;4.20;;
38083;SDS011;23894;51.466;7.444;2023-10-19T03:27:12;7.95;;;3.75;;
38083;SDS011;23894;51.466;7.444;2023-10-19T03:29:23;9.20;;;4.05;;
38083;SDS011;23894;51.466;7.444;2023-10-19T03:31:38;7.20;;;3.85;;
38083;SDS011;23894;51.466;7.444;2023-10-19T03:33:46;6.00;;;3.58;;
38083;SDS011;23894;51.466;7.444;2023-10-19T03:35:49;7.35;;;4.07;;
38083;SDS011;23894;51.466;7.444;2023-10-19T03:37:54;8.18;;;4.00;;
38083;SDS011;23894;51.466;7.444;2023-10-19T03:39:58;6.32;;;3.97;;
38083;SDS011;23894;51.466;7.444;2023-10-19T03:41:59;5.68;;;3.72;;
38083;SDS011;23894;51.466;7.444;2023-10-19T03:44:01;6.55;;;4.13;;
38083;SDS011;23894;51.466;7.444;2023-10-19T03:46:02;8.70;;;3.85;;
38083;SDS011;23894;51.466;7.444;2023-10-19T03:48:09;5.80;;;3.63;;
38083;SDS011;23894;51.466;7.444;2023-10-19T03:50:11;9.50;;;4.22;;
38083;SDS011;23894;51.466;7.444;2023-10-19T03:52:20;6.70;;;3.78;;
38083;SDS011;23894;51.466;7.444;2023-10-19T03:54:20;5.47;;;3.17;;
38083;SDS011;23894;51.466;7.444;2023-10-19T03:56:21;5.68;;;3.55;;
38083;SDS011;23894;51.466;7.444;2023-10-19T03:58:24;6.50;;;3.63;;
38083;SDS011;23894;51.466;7.444;2023-10-19T04:00:30;5.68;;;3.55;;
38083;SDS011;23894;51.466;7.444;2023-10-19T04:02:33;6.63;;;3.65;;
38083;SDS011;23894;51.466;7.444;2023-10-19T04:04:38;6.70;;;2.83;;
38083;SDS011;23894;51.466;7.444;2023-10-19T04:06:39;6.97;;;3.63;;
38083;SDS011;23894;51.466;7.444;2023-10-19T04:08:57;5.00;;;2.85;;
38083;SDS011;23894;51.466;7.444;2023-10-19T04:10:59;7.75;;;3.22;;
38083;SDS011;23894;51.466;7.444;2023-10-19T04:13:21;5.85;;;2.90;;
38083;SDS011;23894;51.466;7.444;2023-10-19T04:15:23;5.40;;;2.85;;
38083;SDS011;23894;51.466;7.444;2023-10-19T04:17:26;6.80;;;3.20;;
38083;SDS011;23894;51.466;7.444;2023-10-19T04:19:29;6.03;;;3.00;;
38083;SDS011;23894;51.466;7.444;2023-10-19T04:21:30;5.95;;;3.20;;
38083;SDS011;23894;51.466;7.444;2023-10-19T04:23:30;6.18;;;3.40;;
38083;SDS011;23894;51.466;7.444;2023-10-19T04:25:34;6.70;;;3.30;;
38083;SDS011;23894;51.466;7.444;2023-10-19T04:27:35;7.60;;;3.30;;
38083;SDS011;23894;51.466;7.444;2023-10-19T04:31:39;5.55;;;2.85;;
38083;SDS011;23894;51.466;7.444;2023-10-19T04:33:59;9.10;;;3.15;;
38083;SDS011;23894;51.466;7.444;2023-10-19T04:36:07;5.88;;;2.85;;
38083;SDS011;23894;51.466;7.444;2023-10-19T04:38:11;5.97;;;2.90;;
38083;SDS011;23894;51.466;7.444;2023-10-19T04:40:12;7.30;;;3.20;;
38083;SDS011;23894;51.466;7.444;2023-10-19T04:44:14;6.03;;;2.78;;
38083;SDS011;23894;51.466;7.444;2023-10-19T04:48:18;6.68;;;2.55;;
38083;SDS011;23894;51.466;7.444;2023-10-19T04:50:19;6.38;;;3.05;;
38083;SDS011;23894;51.466;7.444;2023-10-19T04:54:21;4.97;;;2.65;;
38083;SDS011;23894;51.466;7.444;2023-10-19T04:58:23;6.80;;;2.75;;
38083;SDS011;23894;51.466;7.444;2023-10-19T05:00:24;6.72;;;2.47;;
38083;SDS011;23894;51.466;7.444;2023-10-19T05:02:29;5.95;;;2.88;;
38083;SDS011;23894;51.466;7.444;2023-10-19T05:04:31;5.95;;;2.75;;
38083;SDS011;23894;51.466;7.444;2023-10-19T05:06:36;7.95;;;3.03;;
38083;SDS011;23894;51.466;7.444;2023-10-19T05:08:38;5.53;;;2.50;;
38083;SDS011;23894;51.466;7.444;2023-10-19T05:10:39;7.75;;;3.17;;
38083;SDS011;23894;51.466;7.444;2023-10-19T05:12:41;7.50;;;3.00;;
38083;SDS011;23894;51.466;7.444;2023-10-19T05:14:42;6.85;;;2.50;;
38083;SDS011;23894;51.466;7.444;2023-10-19T05:16:43;6.35;;;3.10;;
38083;SDS011;23894;51.466;7.444;2023-10-19T05:18:43;4.68;;;2.70;;
38083;SDS011;23894;51.466;7.444;2023-10-19T05:22:46;7.35;;;2.40;;
38083;SDS011;23894;51.466;7.444;2023-10-19T05:26:48;5.20;;;2.55;;
38083;SDS011;23894;51.466;7.444;2023-10-19T05:28:49;6.43;;;3.10;;
38083;SDS011;23894;51.466;7.444;2023-10-19T05:30:49;6.70;;;2.58;;
38083;SDS011;23894;51.466;7.444;2023-10-19T05:34:51;4.67;;;2.43;;
38083;SDS011;23894;51.466;7.444;2023-10-19T05:38:52;5.17;;;2.70;;
38083;SDS011;23894;51.466;7.444;2023-10-19T05:42:56;5.38;;;2.47;;
38083;SDS011;23894;51.466;7.444;2023-10-19T05:44:57;6.50;;;2.88;;
38083;SDS011;23894;51.466;7.444;2023-10-19T05:46:59;7.55;;;3.08;;
38083;SDS011;23894;51.466;7.444;2023-10-19T05:48:59;5.03;;;2.70;;
38083;SDS011;23894;51.466;7.444;2023-10-19T05:51:03;11.15;;;3.15;;
38083;SDS011;23894;51.466;7.444;2023-10-19T05:53:04;6.30;;;2.80;;
38083;SDS011;23894;51.466;7.444;2023-10-19T05:55:06;7.20;;;2.78;;
38083;SDS011;23894;51.466;7.444;2023-10-19T05:57:07;6.70;;;2.92;;
38083;SDS011;23894;51.466;7.444;2023-10-19T05:59:09;5.43;;;2.70;;
38083;SDS011;23894;51.466;7.444;2023-10-19T06:01:11;6.30;;;2.70;;
38083;SDS011;23894;51.466;7.444;2023-10-19T06:03:11;5.18;;;2.88;;
38083;SDS011;23894;51.466;7.444;2023-10-19T06:05:12;6.20;;;2.97;;
38083;SDS011;23894;51.466;7.444;2023-10-19T06:07:16;6.50;;;2.78;;
38083;SDS011;23894;51.466;7.444;2023-10-19T06:09:17;8.27;;;2.90;;
38083;SDS011;23894;51.466;7.444;2023-10-19T06:11:20;6.10;;;2.58;;
38083;SDS011;23894;51.466;7.444;2023-10-19T06:13:22;6.55;;;3.30;;
38083;SDS011;23894;51.466;7.444;2023-10-19T06:15:26;5.35;;;3.08;;
38083;SDS011;23894;51.466;7.444;2023-10-19T06:17:31;6.60;;;2.75;;
38083;SDS011;23894;51.466;7.444;2023-10-19T06:19:37;6.15;;;2.35;;
38083;SDS011;23894;51.466;7.444;2023-10-19T06:21:38;4.97;;;2.78;;
38083;SDS011;23894;51.466;7.444;2023-10-19T06:23:40;7.30;;;2.83;;
38083;SDS011;23894;51.466;7.444;2023-10-19T06:25:42;5.70;;;2.90;;
38083;SDS011;23894;51.466;7.444;2023-10-19T06:27:45;6.15;;;2.97;;
38083;SDS011;23894;51.466;7.444;2023-10-19T06:30:04;7.35;;;2.63;;
38083;SDS011;23894;51.466;7.444;2023-10-19T06:32:05;6.50;;;2.80;;
38083;SDS011;23894;51.466;7.444;2023-10-19T06:34:06;6.38;;;3.03;;
38083;SDS011;23894;51.466;7.444;2023-10-19T06:38:07;6.43;;;2.90;;
38083;SDS011;23894;51.466;7.444;2023-10-19T06:40:09;6.82;;;2.72;;
38083;SDS011;23894;51.466;7.444;2023-10-19T06:42:16;5.72;;;2.85;;
38083;SDS011;23894;51.466;7.444;2023-10-19T06:46:18;6.75;;;2.97;;
38083;SDS011;23894;51.466;7.444;2023-10-19T06:48:21;5.82;;;3.15;;
38083;SDS011;23894;51.466;7.444;2023-10-19T06:50:22;8.13;;;3.15;;
38083;SDS011;23894;51.466;7.444;2023-10-19T06:52:23;8.18;;;3.28;;
38083;SDS011;23894;51.466;7.444;2023-10-19T06:54:24;6.13;;;3.22;;
38083;SDS011;23894;51.466;7.444;2023-10-19T06:56:27;6.25;;;3.20;;
38083;SDS011;23894;51.466;7.444;2023-10-19T06:58:28;7.63;;;2.92;;
38083;SDS011;23894;51.466;7.444;2023-10-19T07:00:29;7.60;;;3.00;;
38083;SDS011;23894;51.466;7.444;2023-10-19T07:02:30;7.50;;;3.25;;
38083;SDS011;23894;51.466;7.444;2023-10-19T07:04:30;8.35;;;3.25;;
38083;SDS011;23894;51.466;7.444;2023-10-19T07:06:33;6.03;;;2.92;;
38083;SDS011;23894;51.466;7.444;2023-10-19T07:08:33;8.65;;;3.35;;
38083;SDS011;23894;51.466;7.444;2023-10-19T07:12:35;4.90;;;2.83;;
38083;SDS011;23894;51.466;7.444;2023-10-19T07:14:36;5.47;;;3.13;;
38083;SDS011;23894;51.466;7.444;2023-10-19T07:16:37;5.30;;;2.95;;
38083;SDS011;23894;51.466;7.444;2023-10-19T07:18:41;5.80;;;2.92;;
38083;SDS011;23894;51.466;7.444;2023-10-19T07:20:43;6.13;;;3.00;;
38083;SDS011;23894;51.466;7.444;2023-10-19T07:22:48;6.00;;;2.80;;
38083;SDS011;23894;51.466;7.444;2023-10-19T07:24:52;7.05;;;3.00;;
38083;SDS011;23894;51.466;7.444;2023-10-19T07:26:55;7.22;;;2.97;;
38083;SDS011;23894;51.466;7.444;2023-10-19T07:29:05;7.35;;;2.95;;
38083;SDS011;23894;51.466;7.444;2023-10-19T07:31:08;6.10;;;2.83;;
38083;SDS011;23894;51.466;7.444;2023-10-19T07:33:15;7.90;;;2.85;;
38083;SDS011;23894;51.466;7.444;2023-10-19T07:35:22;5.85;;;3.03;;
38083;SDS011;23894;51.466;7.444;2023-10-19T07:37:25;6.82;;;2.92;;
38083;SDS011;23894;51.466;7.444;2023-10-19T07:39:28;6.03;;;2.60;;
38083;SDS011;23894;51.466;7.444;2023-10-19T07:41:33;6.45;;;2.78;;
38083;SDS011;23894;51.466;7.444;2023-10-19T07:43:36;6.13;;;3.00;;
38083;SDS011;23894;51.466;7.444;2023-10-19T07:45:40;7.93;;;2.63;;
38083;SDS011;23894;51.466;7.444;2023-10-19T07:47:43;6.53;;;3.28;;
38083;SDS011;23894;51.466;7.444;2023-10-19T07:49:46;5.68;;;2.45;;
38083;SDS011;23894;51.466;7.444;2023-10-19T07:51:52;6.18;;;3.05;;
38083;SDS011;23894;51.466;7.444;2023-10-19T07:53:53;5.32;;;2.92;;
38083;SDS011;23894;51.466;7.444;2023-10-19T07:55:56;7.32;;;2.92;;
38083;SDS011;23894;51.466;7.444;2023-10-19T08:00:03;5.97;;;2.90;;
38083;SDS011;23894;51.466;7.444;2023-10-19T08:02:04;5.07;;;2.80;;
38083;SDS011;23894;51.466;7.444;2023-10-19T08:04:09;5.28;;;2.67;;
38083;SDS011;23894;51.466;7.444;2023-10-19T08:06:15;5.40;;;2.83;;
38083;SDS011;23894;51.466;7.444;2023-10-19T08:08:18;5.38;;;2.58;;
38083;SDS011;23894;51.466;7.444;2023-10-19T08:10:24;4.63;;;2.80;;
38083;SDS011;23894;51.466;7.444;2023-10-19T08:12:28;5.70;;;2.67;;
38083;SDS011;23894;51.466;7.444;2023-10-19T08:14:33;5.50;;;2.30;;
38083;SDS011;23894;51.466;7.444;2023-10-19T08:16:37;9.80;;;3.05;;
38083;SDS011;23894;51.466;7.444;2023-10-19T08:18:43;5.40;;;3.00;;
38083;SDS011;23894;51.466;7.444;2023-10-19T08:20:52;7.22;;;3.20;;
38083;SDS011;23894;51.466;7.444;2023-10-19T08:22:57;6.43;;;2.80;;
38083;SDS011;23894;51.466;7.444;2023-10-19T08:25:03;4.85;;;2.67;;
38083;SDS011;23894;51.466;7.444;2023-10-19T08:27:14;6.03;;;2.55;;
38083;SDS011;23894;51.466;7.444;2023-10-19T08:29:18;5.65;;;2.78;;
38083;SDS011;23894;51.466;7.444;2023-10-19T08:31:24;7.07;;;2.45;;
38083;SDS011;23894;51.466;7.444;2023-10-19T08:33:28;7.65;;;2.97;;
38083;SDS011;23894;51.466;7.444;2023-10-19T08:35:34;6.15;;;2.80;;
38083;SDS011;23894;51.466;7.444;2023-10-19T08:37:37;5.60;;;2.42;;
38083;SDS011;23894;51.466;7.444;2023-10-19T08:39:40;6.55;;;2.45;;
38083;SDS011;23894;51.466;7.444;2023-10-19T08:41:43;6.05;;;2.75;;
38083;SDS011;23894;51.466;7.444;2023-10-19T08:43:49;6.68;;;2.30;;
38083;SDS011;23894;51.466;7.444;2023-10-19T08:45:56;5.38;;;2.47;;
38083;SDS011;23894;51.466;7.444;2023-10-19T08:47:59;6.80;;;2.25;;
38083;SDS011;23894;51.466;7.444;2023-10-19T08:50:04;7.20;;;2.88;;
38083;SDS011;23894;51.466;7.444;2023-10-19T08:52:07;6.68;;;2.45;;
38083;SDS011;23894;51.466;7.444;2023-10-19T08:54:11;4.95;;;2.30;;
38083;SDS011;23894;51.466;7.444;2023-10-19T08:56:14;17.77;;;5.65;;
38083;SDS011;23894;51.466;7.444;2023-10-19T08:58:19;3.53;;;1.85;;
38083;SDS011;23894;51.466;7.444;2023-10-19T09:00:22;4.60;;;2.30;;
38083;SDS011;23894;51.466;7.444;2023-10-19T09:02:25;5.93;;;2.08;;
38083;SDS011;23894;51.466;7.444;2023-10-19T09:04:27;8.60;;;2.45;;
38083;SDS011;23894;51.466;7.444;2023-10-19T09:06:28;5.45;;;2.33;;
38083;SDS011;23894;51.466;7.444;2023-10-19T09:08:30;6.55;;;2.10;;
38083;SDS011;23894;51.466;7.444;2023-10-19T09:10:40;5.47;;;2.03;;
38083;SDS011;23894;51.466;7.444;2023-10-19T09:12:48;7.05;;;2.20;;
38083;SDS011;23894;51.466;7.444;2023-10-19T09:14:59;4.63;;;2.15;;
38083;SDS011;23894;51.466;7.444;2023-10-19T09:19:03;7.45;;;2.00;;
38083;SDS011;23894;51.466;7.444;2023-10-19T09:21:06;5.30;;;2.25;;
38083;SDS011;23894;51.466;7.444;2023-10-19T09:23:07;6.05;;;2.45;;
38083;SDS011;23894;51.466;7.444;2023-10-19T09:27:09;4.45;;;1.92;;
38083;SDS011;23894;51.466;7.444;2023-10-19T09:31:12;4.22;;;1.98;;
38083;SDS011;23894;51.466;7.444;2023-10-19T09:35:15;3.95;;;1.73;;
38083;SDS011;23894;51.466;7.444;2023-10-19T09:37:16;4.53;;;1.98;;
38083;SDS011;23894;51.466;7.444;2023-10-19T09:39:17;4.90;;;1.95;;
38083;SDS011;23894;51.466;7.444;2023-10-19T09:43:22;4.78;;;2.15;;
38083;SDS011;23894;51.466;7.444;2023-10-19T09:45:27;7.53;;;2.47;;
38083;SDS011;23894;51.466;7.444;2023-10-19T09:47:32;6.57;;;2.50;;
38083;SDS011;23894;51.466;7.444;2023-10-19T09:49:35;6.25;;;2.50;;
38083;SDS011;23894;51.466;7.444;2023-10-19T09:53:38;6.20;;;2.58;;
38083;SDS011;23894;51.466;7.444;2023-10-19T09:55:39;4.40;;;2.22;;
38083;SDS011;23894;51.466;7.444;2023-10-19T09:57:55;9.23;;;2.63;;
38083;SDS011;23894;51.466;7.444;2023-10-19T09:59:59;5.85;;;2.00;;
38083;SDS011;23894;51.466;7.444;2023-10-19T10:02:08;8.40;;;2.15;;
38083;SDS011;23894;51.466;7.444;2023-10-19T10:04:30;4.50;;;2.15;;
38083;SDS011;23894;51.466;7.444;2023-10-19T10:07:17;6.63;;;2.67;;
38083;SDS011;23894;51.466;7.444;2023-10-19T10:08:55;4.60;;;1.90;;
38083;SDS011;23894;51.466;7.444;2023-10-19T10:10:56;4.80;;;2.05;;
38083;SDS011;23894;51.466;7.444;2023-10-19T10:15:03;8.20;;;2.47;;
38083;SDS011;23894;51.466;7.444;2023-10-19T10:17:07;6.53;;;2.33;;
38083;SDS011;23894;51.466;7.444;2023-10-19T10:19:20;5.88;;;2.50;;
38083;SDS011;23894;51.466;7.444;2023-10-19T10:21:21;7.30;;;1.95;;
38083;SDS011;23894;51.466;7.444;2023-10-19T10:23:24;4.40;;;1.77;;
38083;SDS011;23894;51.466;7.444;2023-10-19T10:25:27;6.03;;;2.17;;
38083;SDS011;23894;51.466;7.444;2023-10-19T10:27:28;9.73;;;1.77;;
38083;SDS011;23894;51.466;7.444;2023-10-19T10:29:30;7.32;;;1.90;;
38083;SDS011;23894;51.466;7.444;2023-10-19T10:31:31;5.07;;;2.00;;
38083;SDS011;23894;51.466;7.444;2023-10-19T10:33:43;4.32;;;2.10;;
38083;SDS011;23894;51.466;7.444;2023-10-19T10:35:54;6.53;;;2.03;;
38083;SDS011;23894;51.466;7.444;2023-10-19T10:37:55;6.75;;;1.83;;
38083;SDS011;23894;51.466;7.444;2023-10-19T10:41:57;9.00;;;1.90;;
38083;SDS011;23894;51.466;7.444;2023-10-19T10:43:58;5.50;;;2.15;;
38083;SDS011;23894;51.466;7.444;2023-10-19T10:48:00;5.10;;;1.73;;
38083;SDS011;23894;51.466;7.444;2023-10-19T10:50:02;7.32;;;2.03;;
38083;SDS011;23894;51.466;7.444;2023-10-19T10:52:03;8.23;;;1.98;;
38083;SDS011;23894;51.466;7.444;2023-10-19T10:56:05;5.18;;;1.60;;
38083;SDS011;23894;51.466;7.444;2023-10-19T11:00:08;6.18;;;1.85;;
38083;SDS011;23894;51.466;7.444;2023-10-19T11:02:18;7.72;;;1.83;;
38083;SDS011;23894;51.466;7.444;2023-10-19T11:04:21;4.13;;;1.45;;
38083;SDS011;23894;51.466;7.444;2023-10-19T11:08:24;6.50;;;1.88;;
38083;SDS011;23894;51.466;7.444;2023-10-19T11:10:28;5.07;;;1.65;;
38083;SDS011;23894;51.466;7.444;2023-10-19T11:12:29;7.32;;;1.80;;
38083;SDS011;23894;51.466;7.444;2023-10-19T11:14:30;6.03;;;2.10;;
38083;SDS011;23894;51.466;7.444;2023-10-19T11:16:32;5.47;;;1.75;;
38083;SDS011;23894;51.466;7.444;2023-10-19T11:20:35;4.35;;;1.67;;
38083;SDS011;23894;51.466;7.444;2023-10-19T11:24:37;7.35;;;1.80;;
38083;SDS011;23894;51.466;7.444;2023-10-19T11:26:40;6.43;;;1.60;;
38083;SDS011;23894;51.466;7.444;2023-10-19T11:28:41;5.70;;;1.40;;
38083;SDS011;23894;51.466;7.444;2023-10-19T11:30:54;5.75;;;1.73;;
38083;SDS011;23894;51.466;7.444;2023-10-19T11:32:55;7.70;;;2.03;;
38083;SDS011;23894;51.466;7.444;2023-10-19T11:35:01;5.05;;;2.10;;
38083;SDS011;23894;51.466;7.444;2023-10-19T11:39:04;8.45;;;2.00;;
38083;SDS011;23894;51.466;7.444;2023-10-19T11:41:09;4.28;;;1.70;;
38083;SDS011;23894;51.466;7.444;2023-10-19T11:43:10;7.75;;;2.33;;
38083;SDS011;23894;51.466;7.444;2023-10-19T11:45:12;6.45;;;2.13;;
38083;SDS011;23894;51.466;7.444;2023-10-19T11:47:13;7.82;;;2.42;;
38083;SDS011;23894;51.466;7.444;2023-10-19T11:49:14;7.30;;;2.33;;
38083;SDS011;23894;51.466;7.444;2023-10-19T11:53:16;4.95;;;1.92;;
38083;SDS011;23894;51.466;7.444;2023-10-19T11:55:17;10.23;;;2.47;;
38083;SDS011;23894;51.466;7.444;2023-10-19T11:57:21;7.03;;;1.95;;
38083;SDS011;23894;51.466;7.444;2023-10-19T11:59:22;6.55;;;1.80;;
38083;SDS011;23894;51.466;7.444;2023-10-19T12:01:23;6.72;;;2.00;;
38083;SDS011;23894;51.466;7.444;2023-10-19T12:03:26;8.38;;;1.77;;
38083;SDS011;23894;51.466;7.444;2023-10-19T12:05:28;4.55;;;1.75;;
38083;SDS011;23894;51.466;7.444;2023-10-19T12:09:30;6.32;;;1.55;;
38083;SDS011;23894;51.466;7.444;2023-10-19T12:11:32;8.23;;;1.95;;
38083;SDS011;23894;51.466;7.444;2023-10-19T12:13:33;5.15;;;1.65;;
38083;SDS011;23894;51.466;7.444;2023-10-19T12:15:34;9.18;;;1.92;;
38083;SDS011;23894;51.466;7.444;2023-10-19T12:17:35;4.28;;;1.60;;
38083;SDS011;23894;51.466;7.444;2023-10-19T12:19:36;8.40;;;2.10;;
38083;SDS011;23894;51.466;7.444;2023-10-19T12:21:38;5.07;;;1.75;;
38083;SDS011;23894;51.466;7.444;2023-10-19T12:23:41;4.63;;;1.75;;
38083;SDS011;23894;51.466;7.444;2023-10-19T12:25:51;4.80;;;1.48;;
38083;SDS011;23894;51.466;7.444;2023-10-19T12:27:52;6.30;;;2.03;;
38083;SDS011;23894;51.466;7.444;2023-10-19T12:29:53;7.00;;;2.13;;
38083;SDS011;23894;51.466;7.444;2023-10-19T12:31:54;5.72;;;1.73;;
38083;SDS011;23894;51.466;7.444;2023-10-19T12:33:56;7.53;;;1.77;;
38083;SDS011;23894;51.466;7.444;2023-10-19T12:35:57;6.00;;;1.92;;
38083;SDS011;23894;51.466;7.444;2023-10-19T12:37:59;5.18;;;1.52;;
38083;SDS011;23894;51.466;7.444;2023-10-19T12:40:00;7.30;;;1.67;;
38083;SDS011;23894;51.466;7.444;2023-10-19T12:42:18;7.90;;;2.50;;
38083;SDS011;23894;51.466;7.444;2023-10-19T12:44:19;6.53;;;1.85;;
38083;SDS011;23894;51.466;7.444;2023-10-19T12:46:20;4.32;;;1.77;;
38083;SDS011;23894;51.466;7.444;2023-10-19T12:48:24;5.28;;;2.10;;
38083;SDS011;23894;51.466;7.444;2023-10-19T12:50:30;6.55;;;1.67;;
38083;SDS011;23894;51.466;7.444;2023-10-19T12:52:31;7.57;;;1.92;;
38083;SDS011;23894;51.466;7.444;2023-10-19T12:54:36;7.72;;;1.83;;
38083;SDS011;23894;51.466;7.444;2023-10-19T12:56:37;5.68;;;1.58;;
38083;SDS011;23894;51.466;7.444;2023-10-19T12:58:39;5.82;;;1.42;;
38083;SDS011;23894;51.466;7.444;2023-10-19T13:00:41;3.40;;;1.40;;
38083;SDS011;23894;51.466;7.444;2023-10-19T13:02:44;4.50;;;1.67;;
38083;SDS011;23894;51.466;7.444;2023-10-19T13:06:46;7.50;;;1.80;;
38083;SDS011;23894;51.466;7.444;2023-10-19T13:08:48;3.53;;;1.63;;
38083;SDS011;23894;51.466;7.444;2023-10-19T13:10:49;5.63;;;1.80;;
38083;SDS011;23894;51.466;7.444;2023-10-19T13:12:51;12.45;;;2.13;;
38083;SDS011;23894;51.466;7.444;2023-10-19T13:16:53;6.25;;;1.58;;
38083;SDS011;23894;51.466;7.444;2023-10-19T13:18:54;4.25;;;1.30;;
38083;SDS011;23894;51.466;7.444;2023-10-19T13:22:57;5.30;;;1.23;;
38083;SDS011;23894;51.466;7.444;2023-10-19T13:24:59;4.65;;;1.73;;
38083;SDS011;23894;51.466;7.444;2023-10-19T13:29:00;5.20;;;1.77;;
38083;SDS011;23894;51.466;7.444;2023-10-19T13:31:02;6.32;;;1.90;;
38083;SDS011;23894;51.466;7.444;2023-10-19T13:33:04;7.80;;;1.85;;
38083;SDS011;23894;51.466;7.444;2023-10-19T13:35:06;5.18;;;1.75;;
38083;SDS011;23894;51.466;7.444;2023-10-19T13:37:07;4.15;;;1.55;;
38083;SDS011;23894;51.466;7.444;2023-10-19T13:41:13;5.15;;;1.63;;
38083;SDS011;23894;51.466;7.444;2023-10-19T13:43:19;4.20;;;1.58;;
38083;SDS011;23894;51.466;7.444;2023-10-19T13:45:20;5.75;;;1.70;;